Time;durP1;ratioP1;P1;durP2;ratioP2;P2;SDS_P1;SDS_P2;PMS_P1;PMS_P2;Temp;Humidity;BMP_temperature;BMP_pressure;BME280_temperature;BME280_humidity;BME280_pressure;Samples;Min_cycle;Max_cycle;Signal;HPM_P1;HPM_P2
2022/08/12 00:42:52;;;;;;;10.30;4.72;;;15.60;99.90;;;;;;5008723;28;20060;-43
2022/08/12 00:45:18;;;;;;;5.70;4.20;;;15.80;99.90;;;;;;5008573;28;20049;-43
2022/08/12 00:47:44;;;;;;;7.95;4.93;;;15.50;99.90;;;;;;5008248;28;20129;-43
2022/08/12 00:50:17;;;;;;;6.32;4.57;;;15.50;99.90;;;;;;4991007;28;20046;-43
2022/08/12 00:52:48;;;;;;;6.35;4.63;;;15.50;99.90;;;;;;5008420;28;20082;-43
2022/08/12 00:55:14;;;;;;;6.75;4.45;;;15.50;99.90;;;;;;5008463;28;20069;-44
2022/08/12 00:57:46;;;;;;;8.60;4.40;;;15.40;99.90;;;;;;5008129;28;20050;-43
2022/08/12 01:00:23;;;;;;;11.55;5.32;;;15.40;99.90;;;;;;5008106;28;20480;-44
2022/08/12 01:02:54;;;;;;;7.28;5.32;;;15.40;99.90;;;;;;5007828;28;20061;-44
2022/08/12 01:13:46;;;;;;;5.75;5.15;;;15.30;99.90;;;;;;5008776;28;20522;-44
2022/08/12 01:16:15;;;;;;;7.45;5.45;;;15.30;99.90;;;;;;5008063;28;20041;-44
2022/08/12 01:18:43;;;;;;;9.07;4.95;;;15.30;99.90;;;;;;5007583;28;20423;-44
2022/08/12 01:21:15;;;;;;;7.57;5.35;;;15.30;99.90;;;;;;5007495;28;20564;-43
2022/08/12 01:23:59;;;;;;;;;;;15.20;99.90;;;;;;5008397;28;20042;-44
2022/08/12 01:26:25;;;;;;;5.15;4.65;;;15.10;99.90;;;;;;5007035;28;19922;-44
2022/08/12 01:28:56;;;;;;;9.85;4.40;;;14.90;99.90;;;;;;5007380;28;20041;-44
2022/08/12 01:31:22;;;;;;;5.28;4.43;;;14.90;99.90;;;;;;5007809;28;20519;-44
2022/08/12 01:34:18;;;;;;;5.05;3.78;;;14.80;99.90;;;;;;5007581;28;20044;-44
2022/08/12 01:36:56;;;;;;;6.53;4.65;;;14.70;99.90;;;;;;5005810;28;20057;-44
2022/08/12 01:39:28;;;;;;;9.65;5.03;;;15.20;99.90;;;;;;5027200;28;20164;-43
2022/08/12 01:41:59;;;;;;;5.93;3.97;;;14.50;99.90;;;;;;5027207;28;20124;-45
2022/08/12 01:44:27;;;;;;;6.82;5.30;;;14.80;99.90;;;;;;5027104;28;20120;-44
2022/08/12 01:47:14;;;;;;;6.15;4.68;;;14.20;99.90;;;;;;5026624;28;20064;-43
2022/08/12 01:50:01;;;;;;;7.28;5.05;;;14.30;99.90;;;;;;5026810;28;20487;-44
2022/08/12 01:52:32;;;;;;;8.73;6.65;;;14.40;99.90;;;;;;5027086;28;20045;-43
2022/08/12 01:54:59;;;;;;;7.70;6.10;;;14.40;99.90;;;;;;5026616;28;20052;-44
2022/08/12 01:57:43;;;;;;;9.60;5.65;;;14.70;99.90;;;;;;5026910;28;20045;-43
2022/08/12 02:00:12;;;;;;;7.00;5.65;;;14.40;99.90;;;;;;5026811;28;20048;-44
2022/08/12 02:03:16;;;;;;;8.60;5.78;;;14.40;99.90;;;;;;5026618;28;20053;-44
2022/08/12 02:12:18;;;;;;;9.30;7.03;;;14.80;99.90;;;;;;5026491;28;20403;-44
2022/08/12 02:14:56;;;;;;;8.35;6.40;;;14.50;99.90;;;;;;5026571;28;20048;-43
2022/08/12 02:17:53;;;;;;;7.97;6.07;;;14.50;99.90;;;;;;5026858;28;20067;-44
2022/08/12 02:20:37;;;;;;;8.20;6.30;;;14.30;99.90;;;;;;5026974;28;20407;-44
2022/08/12 02:23:06;;;;;;;8.60;6.55;;;14.40;99.90;;;;;;5026045;28;20135;-43
2022/08/12 02:25:35;;;;;;;10.48;6.97;;;14.80;99.90;;;;;;5026805;28;20619;-44
2022/08/12 02:28:02;;;;;;;8.77;6.80;;;14.60;99.90;;;;;;5026079;28;20040;-44
2022/08/12 02:30:30;;;;;;;8.00;6.35;;;14.30;99.90;;;;;;5026409;28;20046;-43
2022/08/12 02:33:00;;;;;;;6.78;5.35;;;14.30;99.90;;;;;;5025693;28;20045;-44
2022/08/12 02:35:29;;;;;;;7.72;6.30;;;14.20;99.90;;;;;;5026756;28;20045;-44
2022/08/12 02:37:59;;;;;;;7.57;6.05;;;14.30;99.90;;;;;;5025832;28;20049;-44
2022/08/12 02:40:26;;;;;;;6.22;5.65;;;14.20;99.90;;;;;;5025706;28;20049;-43
2022/08/12 02:43:11;;;;;;;6.75;5.70;;;14.10;99.90;;;;;;5026036;28;20594;-44
2022/08/12 02:45:52;;;;;;;6.70;4.57;;;14.00;99.90;;;;;;5026382;28;20079;-43
2022/08/12 02:48:44;;;;;;;6.95;5.68;;;14.70;99.90;;;;;;5026065;28;20053;-43
2022/08/12 02:51:11;;;;;;;;;;;13.90;99.90;;;;;;5026890;28;20049;-43
2022/08/12 02:53:37;;;;;;;6.13;5.32;;;13.90;99.90;;;;;;5026290;28;19955;-43
2022/08/12 02:56:04;;;;;;;7.65;6.05;;;13.80;99.90;;;;;;5025766;28;20053;-43
2022/08/12 02:58:34;;;;;;;6.90;5.70;;;13.60;99.90;;;;;;5025909;28;20064;-43
2022/08/12 03:01:03;;;;;;;6.85;5.50;;;13.70;99.90;;;;;;5025785;28;20434;-43
2022/08/12 03:03:33;;;;;;;8.48;6.70;;;13.50;99.90;;;;;;5025580;28;20495;-44
2022/08/12 03:06:20;;;;;;;8.48;6.47;;;13.80;99.90;;;;;;5025589;28;20560;-43
2022/08/12 03:08:48;;;;;;;7.10;6.38;;;13.40;99.90;;;;;;5025269;28;20507;-43
2022/08/12 03:11:27;;;;;;;10.85;7.97;;;13.80;99.90;;;;;;5008025;28;20816;-44
2022/08/12 03:13:59;;;;;;;9.38;7.93;;;13.50;99.90;;;;;;5025685;28;20049;-43
2022/08/12 03:16:26;;;;;;;9.70;7.43;;;13.50;99.90;;;;;;5025584;28;20048;-43
2022/08/12 03:18:53;;;;;;;9.10;7.13;;;14.30;99.90;;;;;;5025490;28;20372;-43
2022/08/12 03:21:19;;;;;;;11.50;7.43;;;13.80;99.90;;;;;;5025694;28;20052;-43
2022/08/12 03:23:46;;;;;;;10.20;8.25;;;13.60;99.90;;;;;;5025489;28;20045;-44
2022/08/12 03:26:13;;;;;;;9.30;6.82;;;13.60;99.90;;;;;;5025993;28;20129;-43
2022/08/12 03:28:49;;;;;;;8.82;6.60;;;13.50;99.90;;;;;;5026013;28;20042;-44
2022/08/12 03:31:21;;;;;;;7.40;6.53;;;13.70;99.90;;;;;;5026150;28;20041;-43
2022/08/12 03:33:48;;;;;;;8.98;7.13;;;13.60;99.90;;;;;;5026051;28;20041;-43
2022/08/12 03:36:19;;;;;;;6.72;5.93;;;13.30;99.90;;;;;;5025904;28;20037;-43
2022/08/12 03:39:17;;;;;;;7.60;5.78;;;13.30;99.90;;;;;;5026092;28;20049;-43
2022/08/12 03:41:40;;;;;;;8.35;6.47;;;13.80;99.90;;;;;;5025705;28;20049;-43
2022/08/12 04:00:59;;;;;;;7.32;5.85;;;12.70;99.90;;;;;;5028982;28;20063;-43
2022/08/12 04:06:09;;;;;;;9.23;8.23;;;12.60;99.90;;;;;;5028620;28;20056;-43
2022/08/12 04:08:35;;;;;;;11.52;9.07;;;12.90;99.90;;;;;;5028785;28;20065;-43
2022/08/12 04:13:47;;;;;;;10.57;8.77;;;13.10;99.90;;;;;;5028744;28;20540;-43
2022/08/12 04:16:15;;;;;;;7.78;6.60;;;13.10;99.90;;;;;;5028447;28;20167;-43
2022/08/12 04:18:42;;;;;;;9.40;6.63;;;13.60;99.90;;;;;;5028486;28;20551;-43
2022/08/12 04:21:11;;;;;;;6.10;4.57;;;13.10;99.90;;;;;;5028464;28;20478;-43
2022/08/12 04:23:41;;;;;;;5.55;4.97;;;13.10;99.90;;;;;;5028531;28;20045;-43
2022/08/12 04:26:06;;;;;;;4.82;4.32;;;12.90;99.90;;;;;;5028268;28;20038;-43
2022/08/12 04:28:32;;;;;;;6.15;4.65;;;12.90;99.90;;;;;;5028651;28;20488;-43
2022/08/12 04:30:58;;;;;;;9.63;8.18;;;12.90;99.90;;;;;;5028932;28;20037;-43
2022/08/12 04:33:25;;;;;;;13.18;8.48;;;12.90;99.90;;;;;;5028514;28;20095;-35
2022/08/12 04:35:52;;;;;;;12.63;9.75;;;13.10;99.90;;;;;;5028730;28;20120;-35
2022/08/12 04:38:19;;;;;;;12.50;10.15;;;13.00;99.90;;;;;;5028326;28;20045;-35
2022/08/12 04:40:45;;;;;;;11.00;9.68;;;13.10;99.90;;;;;;5028088;28;20045;-35
2022/08/12 04:43:11;;;;;;;12.57;9.90;;;13.20;99.90;;;;;;5027707;28;20083;-35
2022/08/12 04:45:37;;;;;;;12.20;10.85;;;13.50;99.90;;;;;;5028144;28;20061;-35
2022/08/12 04:48:04;;;;;;;19.52;10.80;;;13.30;99.90;;;;;;5028268;28;20045;-36
2022/08/12 04:50:30;;;;;;;14.10;10.27;;;13.50;99.90;;;;;;5027657;28;20090;-35
2022/08/12 04:53:00;;;;;;;13.25;10.05;;;13.60;99.90;;;;;;5028058;28;20080;-35
2022/08/12 04:55:27;;;;;;;14.43;10.07;;;13.70;99.90;;;;;;5027597;28;20071;-35
2022/08/12 04:57:53;;;;;;;11.80;10.00;;;13.80;99.90;;;;;;5027993;28;20045;-35
2022/08/12 05:00:19;;;;;;;13.70;11.15;;;13.80;99.90;;;;;;5027980;28;20041;-36
2022/08/12 05:02:45;;;;;;;16.73;10.00;;;13.90;99.90;;;;;;5026867;28;20055;-35
2022/08/12 05:05:21;;;;;;;11.20;9.77;;;13.90;99.90;;;;;;5027413;28;20046;-35
2022/08/12 05:07:48;;;;;;;11.10;9.18;;;13.90;99.90;;;;;;5026819;28;20055;-36
2022/08/12 05:10:15;;;;;;;13.50;9.25;;;13.90;99.90;;;;;;5027104;28;20052;-35
2022/08/12 05:12:44;;;;;;;11.00;8.60;;;14.00;99.90;;;;;;5027504;28;20365;-35
2022/08/12 05:15:14;;;;;;;10.75;8.68;;;14.60;99.90;;;;;;5024349;28;20041;-36
2022/08/12 05:17:40;;;;;;;10.18;8.30;;;14.30;99.90;;;;;;5027226;28;20049;-35
2022/08/12 05:20:10;;;;;;;12.25;8.95;;;14.30;99.90;;;;;;5026857;28;20116;-35
2022/08/12 05:22:37;;;;;;;10.10;8.18;;;14.30;99.90;;;;;;5027267;28;20048;-35
2022/08/12 05:25:05;;;;;;;9.55;7.13;;;14.50;99.90;;;;;;5027048;28;20384;-35
2022/08/12 05:27:32;;;;;;;10.02;7.95;;;14.50;99.90;;;;;;5023294;28;20045;-35
2022/08/12 05:29:58;;;;;;;11.52;8.02;;;14.70;99.90;;;;;;5026509;28;20103;-37
2022/08/12 05:32:24;;;;;;;9.90;8.10;;;14.90;99.90;;;;;;5026506;28;20069;-36
2022/08/12 05:34:52;;;;;;;12.65;7.80;;;15.00;99.90;;;;;;5026925;28;20467;-35
2022/08/12 05:37:19;;;;;;;8.90;8.00;;;15.40;99.90;;;;;;5026212;28;20389;-36
2022/08/12 05:39:45;;;;;;;11.40;7.78;;;15.60;99.90;;;;;;5026645;28;20053;-36
2022/08/12 05:42:10;;;;;;;10.32;7.20;;;15.90;99.90;;;;;;5026987;28;20044;-35
2022/08/12 05:44:36;;;;;;;7.60;6.60;;;16.10;99.90;;;;;;5016701;28;20033;-35
2022/08/12 05:47:03;;;;;;;9.57;7.30;;;16.20;99.90;;;;;;5026587;28;20045;-35
2022/08/12 05:49:29;;;;;;;9.45;6.70;;;16.30;99.90;;;;;;5026419;28;20112;-35
2022/08/12 05:51:56;;;;;;;7.82;6.65;;;16.60;99.90;;;;;;5017261;28;20056;-35
2022/08/12 05:54:22;;;;;;;11.05;6.50;;;16.80;99.90;;;;;;5026471;28;20041;-36
2022/08/12 05:56:48;;;;;;;8.10;5.95;;;17.30;99.90;;;;;;5026392;28;20052;-36
2022/08/12 05:59:13;;;;;;;8.07;5.53;;;17.80;99.90;;;;;;5026664;28;20052;-36
2022/08/12 06:01:40;;;;;;;8.82;5.15;;;18.20;99.90;;;;;;5026324;28;20041;-37
2022/08/12 06:04:08;;;;;;;8.15;4.88;;;19.80;99.90;;;;;;5026725;28;20116;-36
2022/08/12 06:06:37;;;;;;;6.70;4.95;;;20.30;99.90;;;;;;5023559;28;20177;-36
2022/08/12 06:09:03;;;;;;;7.95;4.57;;;21.70;99.90;;;;;;5026324;28;20075;-35
2022/08/12 06:11:29;;;;;;;7.65;4.68;;;23.20;98.70;;;;;;5025522;28;20058;-35
2022/08/12 06:13:57;;;;;;;5.80;5.07;;;24.20;94.90;;;;;;5025987;28;20518;-36
2022/08/12 06:16:23;;;;;;;5.00;3.97;;;24.10;93.00;;;;;;5025867;28;20561;-36
2022/08/12 06:18:50;;;;;;;5.53;4.07;;;23.10;93.70;;;;;;5026547;28;20041;-35
2022/08/12 06:21:20;;;;;;;8.75;4.30;;;22.20;94.60;;;;;;5025995;28;20072;-36
2022/08/12 06:23:46;;;;;;;9.82;4.60;;;21.80;96.10;;;;;;5025905;28;20033;-36
2022/08/12 06:26:14;;;;;;;5.25;4.28;;;21.50;97.40;;;;;;5026228;28;20045;-36
2022/08/12 06:28:43;;;;;;;7.60;4.28;;;21.30;98.70;;;;;;5025455;28;20084;-36
2022/08/12 06:31:15;;;;;;;7.18;3.92;;;21.70;98.90;;;;;;5023495;28;20203;-36
2022/08/12 06:33:45;;;;;;;8.18;4.00;;;23.40;96.10;;;;;;5025482;28;20037;-36
2022/08/12 06:36:15;;;;;;;8.63;4.25;;;25.00;93.30;;;;;;5025783;28;20420;-38
2022/08/12 06:38:43;;;;;;;6.80;4.32;;;26.40;89.60;;;;;;5025829;28;20040;-36
2022/08/12 06:43:54;;;;;;;11.70;3.47;;;25.00;87.40;;;;;;5025771;28;20084;-36
2022/08/12 06:46:20;;;;;;;5.40;4.10;;;24.20;89.50;;;;;;5025761;28;20100;-36
2022/08/12 06:48:48;;;;;;;4.85;3.33;;;23.60;91.00;;;;;;5025387;28;20506;-36
2022/08/12 06:51:14;;;;;;;8.40;3.90;;;23.10;91.40;;;;;;5025594;28;20087;-36
2022/08/12 06:53:42;;;;;;;9.98;4.15;;;23.60;91.80;;;;;;5025547;28;20471;-36
2022/08/12 06:56:08;;;;;;;7.95;3.83;;;24.90;90.10;;;;;;5007672;28;20448;-36
2022/08/12 06:58:38;;;;;;;5.90;3.35;;;25.60;88.00;;;;;;5024788;28;20073;-36
2022/08/12 07:01:05;;;;;;;7.38;3.42;;;26.10;87.30;;;;;;5025690;28;20041;-36
2022/08/12 07:03:32;;;;;;;3.97;3.25;;;27.40;83.60;;;;;;5025472;28;20045;-36
2022/08/12 07:06:04;;;;;;;8.05;3.58;;;28.60;78.50;;;;;;5025625;28;20161;-36
2022/08/12 07:08:32;;;;;;;6.03;2.90;;;29.60;72.40;;;;;;5022860;28;20059;-36
2022/08/12 07:11:00;;;;;;;7.75;3.15;;;30.10;69.70;;;;;;5007661;28;20392;-37
2022/08/12 07:13:41;;;;;;;4.68;2.65;;;28.70;69.90;;;;;;5025277;28;20442;-36
2022/08/12 07:16:09;;;;;;;5.83;3.10;;;27.60;71.10;;;;;;5023200;28;20037;-37
2022/08/12 07:18:35;;;;;;;4.50;3.03;;;26.70;74.90;;;;;;5025673;28;20697;-36
2022/08/12 07:21:02;;;;;;;7.30;3.45;;;26.10;77.80;;;;;;5025839;28;20050;-36
2022/08/12 07:23:30;;;;;;;6.75;3.17;;;25.60;79.10;;;;;;5022679;28;20116;-36
2022/08/12 07:25:57;;;;;;;7.65;3.20;;;25.20;80.20;;;;;;5027684;28;20141;-37
2022/08/12 07:28:26;;;;;;;5.85;2.83;;;25.00;81.60;;;;;;5028775;28;20052;-36
2022/08/12 07:30:54;;;;;;;5.32;2.60;;;25.30;83.40;;;;;;5019333;28;20398;-36
2022/08/12 07:33:22;;;;;;;2.83;2.13;;;26.20;80.50;;;;;;5029263;28;20037;-37
2022/08/12 07:35:49;;;;;;;3.15;2.20;;;25.90;78.60;;;;;;5029101;28;20042;-36
2022/08/12 07:38:23;;;;;;;3.90;2.25;;;25.50;79.70;;;;;;5029548;28;20071;-36
2022/08/12 07:40:54;;;;;;;3.75;2.25;;;25.10;79.00;;;;;;5028674;28;20714;-36
2022/08/12 07:43:20;;;;;;;10.37;2.00;;;24.90;81.60;;;;;;5029588;28;20046;-37
2022/08/12 07:45:47;;;;;;;6.70;1.95;;;26.10;90.20;;;;;;5028807;28;20080;-37
2022/08/12 07:48:12;;;;;;;4.88;2.10;;;27.60;83.40;;;;;;5013219;28;20176;-55
2022/08/12 07:50:38;;;;;;;5.88;1.67;;;29.60;75.40;;;;;;5010508;28;20100;-51
2022/08/12 07:53:04;;;;;;;7.53;1.98;;;31.20;73.20;;;;;;5018451;28;20058;-52
2022/08/12 07:55:29;;;;;;;7.43;2.25;;;32.10;73.80;;;;;;5027547;28;20429;-52
2022/08/12 07:57:58;;;;;;;4.25;1.40;;;32.50;69.40;;;;;;5025670;28;20445;-51
2022/08/12 08:00:33;;;;;;;4.07;1.85;;;32.50;69.40;;;;;;5025421;28;20571;-52
2022/08/12 08:02:59;;;;;;;5.65;1.88;;;33.10;60.50;;;;;;5026176;28;20037;-51
2022/08/12 08:05:30;;;;;;;6.70;1.95;;;34.40;59.10;;;;;;5026006;28;20034;-51
2022/08/12 08:08:01;;;;;;;5.90;1.60;;;35.50;56.40;;;;;;5006446;28;20541;-49
2022/08/12 08:10:30;;;;;;;5.00;1.58;;;36.50;55.60;;;;;;5026881;28;20654;-50
2022/08/12 08:12:58;;;;;;;7.97;1.80;;;37.30;53.90;;;;;;5024201;28;20056;-52
2022/08/12 08:15:27;;;;;;;2.40;1.30;;;37.70;51.10;;;;;;5027667;28;20113;-54
2022/08/12 08:18:00;;;;;;;2.60;1.17;;;38.40;51.30;;;;;;5026908;28;20045;-52
2022/08/12 08:20:32;;;;;;;4.25;1.20;;;38.90;48.70;;;;;;5026157;28;20056;-53
2022/08/12 08:23:07;;;;;;;5.43;0.98;;;39.50;48.00;;;;;;5025028;28;20048;-53
2022/08/12 08:25:37;;;;;;;2.97;1.27;;;40.10;47.40;;;;;;5024921;28;20052;-53
2022/08/12 08:28:06;;;;;;;6.45;1.48;;;40.80;45.80;;;;;;5025667;28;20053;-53
2022/08/12 08:30:33;;;;;;;4.15;0.90;;;41.30;44.60;;;;;;5023111;28;20038;-53
2022/08/12 08:32:59;;;;;;;5.00;0.95;;;41.40;45.40;;;;;;5008451;28;20077;-51
2022/08/12 08:35:26;;;;;;;3.60;0.88;;;41.90;45.00;;;;;;5025158;28;20092;-51
2022/08/12 08:37:52;;;;;;;2.40;1.00;;;42.20;44.60;;;;;;5023912;28;20073;-52
2022/08/12 08:43:03;;;;;;;4.75;0.93;;;43.00;42.00;;;;;;5025531;28;20517;-51
2022/08/12 08:45:30;;;;;;;5.10;1.10;;;43.50;42.30;;;;;;5025818;28;20399;-53
2022/08/12 08:47:55;;;;;;;9.13;1.35;;;44.00;41.20;;;;;;5013167;28;20057;-54
2022/08/12 08:50:21;;;;;;;7.05;0.90;;;44.20;41.10;;;;;;5025117;28;20506;-51
2022/08/12 08:52:47;;;;;;;3.55;0.80;;;44.30;39.90;;;;;;5024040;28;20041;-51
2022/08/12 08:55:15;;;;;;;4.80;1.05;;;44.00;40.80;;;;;;5025733;28;20037;-52
2022/08/12 08:57:43;;;;;;;5.28;1.10;;;44.00;40.10;;;;;;5023393;28;20055;-52
2022/08/12 09:00:19;;;;;;;5.22;0.85;;;44.50;40.70;;;;;;5025120;28;20037;-53
2022/08/12 09:02:47;;;;;;;5.65;1.38;;;44.90;39.80;;;;;;5024164;28;20045;-52
2022/08/12 09:05:13;;;;;;;7.80;1.25;;;45.10;38.70;;;;;;5024577;28;20044;-53
2022/08/12 09:07:47;;;;;;;3.22;1.15;;;45.20;38.50;;;;;;5024522;28;20371;-51
2022/08/12 09:10:15;;;;;;;4.50;0.80;;;45.10;38.30;;;;;;5024345;28;20077;-53
2022/08/12 09:15:28;;;;;;;5.00;1.17;;;45.50;39.30;;;;;;5025343;28;20041;-53
2022/08/12 09:17:55;;;;;;;3.80;1.30;;;45.40;38.90;;;;;;5010333;28;20067;-54
2022/08/12 09:20:32;;;;;;;4.60;1.58;;;45.50;38.80;;;;;;5024994;28;20496;-53
2022/08/12 09:23:00;;;;;;;6.15;0.95;;;45.40;38.20;;;;;;5023827;28;20483;-54
2022/08/12 09:25:28;;;;;;;2.10;1.02;;;45.50;38.40;;;;;;5025213;28;20096;-53
2022/08/12 09:27:54;;;;;;;3.53;0.90;;;45.80;38.60;;;;;;5022187;28;20044;-53
2022/08/12 09:30:22;;;;;;;5.65;1.25;;;45.50;37.10;;;;;;5008103;28;20431;-54
2022/08/12 09:32:52;;;;;;;2.50;0.80;;;45.30;38.30;;;;;;5024094;28;20045;-55
2022/08/12 09:35:23;;;;;;;6.72;1.80;;;45.10;38.00;;;;;;5024115;28;20041;-54
2022/08/12 09:37:54;;;;;;;4.40;1.02;;;45.10;38.30;;;;;;4994673;28;20045;-53
2022/08/12 09:40:22;;;;;;;5.03;1.48;;;44.70;38.10;;;;;;5025313;28;20052;-52
2022/08/12 09:45:35;;;;;;;4.15;0.77;;;44.30;39.00;;;;;;5022571;28;20045;-54
2022/08/12 09:48:05;;;;;;;3.55;0.80;;;44.00;38.40;;;;;;5001295;28;20148;-54
2022/08/12 09:50:35;;;;;;;5.72;0.85;;;44.10;38.60;;;;;;5024502;28;20071;-53
2022/08/12 09:53:22;;;;;;;4.47;1.40;;;44.10;38.40;;;;;;5025376;28;20373;-54
2022/08/12 09:55:51;;;;;;;3.50;0.85;;;43.80;38.60;;;;;;5027338;28;20457;-53
2022/08/12 09:58:18;;;;;;;2.80;0.80;;;43.70;38.00;;;;;;5026973;28;20355;-53
2022/08/12 10:00:46;;;;;;;5.05;0.98;;;43.50;37.90;;;;;;5026618;28;20547;-54
2022/08/12 10:03:13;;;;;;;3.08;0.70;;;43.50;37.50;;;;;;5027760;28;20046;-53
2022/08/12 10:05:45;;;;;;;2.97;0.90;;;43.50;38.60;;;;;;5027196;28;20045;-53
2022/08/12 10:08:13;;;;;;;2.90;0.65;;;43.40;38.40;;;;;;5026600;28;20146;-52
2022/08/12 10:13:41;;;;;;;4.25;0.95;;;43.60;37.20;;;;;;5025084;28;20048;-52
2022/08/12 10:16:27;;;;;;;3.70;0.90;;;43.10;36.90;;;;;;5024953;28;20435;-52
2022/08/12 10:19:01;;;;;;;7.78;0.90;;;42.60;36.70;;;;;;5026570;28;20077;-53
2022/08/12 10:21:39;;;;;;;3.78;1.08;;;42.30;37.00;;;;;;5007619;28;20060;-52
2022/08/12 10:24:14;;;;;;;3.70;0.70;;;42.30;37.10;;;;;;5026587;28;20131;-54
2022/08/12 10:29:37;;;;;;;4.75;0.60;;;42.10;36.10;;;;;;5022596;28;20399;-52
2022/08/12 10:32:06;;;;;;;4.80;0.70;;;41.50;35.80;;;;;;5025587;28;20033;-53
2022/08/12 10:34:33;;;;;;;1.65;0.70;;;40.60;37.20;;;;;;5027858;28;20038;-55
2022/08/12 10:37:00;;;;;;;4.18;0.60;;;39.90;38.30;;;;;;5027108;28;20029;-54
2022/08/12 10:39:36;;;;;;;4.18;0.60;;;39.50;36.60;;;;;;5027353;28;20056;-52
2022/08/12 10:44:49;;;;;;;2.47;0.63;;;39.80;36.40;;;;;;5027037;28;20100;-52
2022/08/12 10:47:15;;;;;;;1.40;0.55;;;39.90;36.50;;;;;;5026271;28;20083;-52
2022/08/12 10:49:43;;;;;;;1.70;0.60;;;40.10;36.90;;;;;;5022831;28;20506;-51
2022/08/12 10:52:10;;;;;;;6.68;0.82;;;40.00;37.10;;;;;;5025956;28;20073;-50
2022/08/12 10:54:37;;;;;;;3.38;0.60;;;39.20;37.70;;;;;;5025893;28;20555;-54
2022/08/12 10:57:02;;;;;;;2.13;0.55;;;38.20;40.60;;;;;;5026160;28;20435;-52
2022/08/12 10:59:29;;;;;;;4.82;0.60;;;37.10;41.80;;;;;;5025996;28;20046;-51
2022/08/12 11:01:56;;;;;;;2.40;0.50;;;36.10;39.40;;;;;;5029588;28;20073;-52
2022/08/12 11:04:23;;;;;;;3.78;0.70;;;35.30;39.50;;;;;;5027754;28;20044;-51
2022/08/12 11:06:52;;;;;;;3.53;0.73;;;34.70;43.80;;;;;;5029952;28;20045;-53
2022/08/12 11:09:23;;;;;;;2.85;0.65;;;34.30;44.10;;;;;;5029277;28;20463;-51
2022/08/12 11:11:49;;;;;;;5.60;0.80;;;33.80;45.50;;;;;;5029637;28;20049;-50
2022/08/12 11:14:16;;;;;;;2.13;0.65;;;33.30;51.50;;;;;;5029855;28;20037;-51
2022/08/12 11:16:45;;;;;;;34.17;2.53;;;33.00;53.00;;;;;;5029974;28;20102;-55
2022/08/12 11:19:11;;;;;;;4.43;0.82;;;32.30;43.20;;;;;;5029778;28;20387;-55
2022/08/12 11:21:38;;;;;;;2.30;0.55;;;32.40;43.60;;;;;;5026412;28;20038;-55
2022/08/12 11:24:04;;;;;;;4.35;0.80;;;32.20;42.80;;;;;;5029365;28;20048;-55
2022/08/12 11:26:30;;;;;;;2.97;0.60;;;32.10;42.60;;;;;;5029568;28;20219;-54
2022/08/12 11:28:56;;;;;;;3.92;0.90;;;31.90;42.80;;;;;;5011443;28;20144;-54
2022/08/12 11:31:21;;;;;;;1.42;0.55;;;31.80;43.30;;;;;;5029646;28;20044;-55
2022/08/12 11:33:48;;;;;;;5.78;0.60;;;31.70;43.80;;;;;;5029270;28;20041;-54
2022/08/12 11:36:14;;;;;;;2.42;0.45;;;31.60;43.40;;;;;;5029655;28;20113;-54
2022/08/12 11:38:40;;;;;;;4.30;0.80;;;31.60;43.90;;;;;;5029628;28;20144;-55
2022/08/12 11:41:06;;;;;;;2.30;0.63;;;31.40;43.00;;;;;;5019675;28;20124;-54
2022/08/12 11:43:32;;;;;;;5.65;0.80;;;31.30;43.80;;;;;;5029056;28;20045;-55
2022/08/12 11:45:58;;;;;;;1.20;0.60;;;31.30;44.90;;;;;;5029558;28;20610;-58
2022/08/12 11:48:25;;;;;;;5.72;1.00;;;31.20;45.60;;;;;;5011666;28;20494;-55
2022/08/12 11:50:50;;;;;;;3.15;0.70;;;31.10;46.10;;;;;;5029158;28;20048;-55
2022/08/12 11:53:16;;;;;;;3.38;0.73;;;31.10;44.50;;;;;;5029405;28;20457;-55
2022/08/12 11:55:42;;;;;;;3.00;0.60;;;30.90;44.50;;;;;;5029731;28;20526;-55
2022/08/12 11:58:08;;;;;;;6.20;0.80;;;30.80;46.10;;;;;;5028997;28;20523;-55
2022/08/12 12:00:35;;;;;;;2.28;0.50;;;30.70;45.50;;;;;;5029304;28;20042;-55
2022/08/12 12:03:00;;;;;;;4.35;0.75;;;30.70;45.40;;;;;;5028855;28;20072;-55
2022/08/12 12:05:26;;;;;;;1.48;0.60;;;30.60;45.30;;;;;;5029364;28;20095;-55
2022/08/12 12:07:52;;;;;;;3.55;0.70;;;30.50;44.20;;;;;;5028539;28;20119;-55
2022/08/12 12:10:19;;;;;;;4.32;0.80;;;30.40;45.50;;;;;;5028703;28;20053;-55
2022/08/12 12:12:45;;;;;;;5.45;0.68;;;30.40;45.40;;;;;;5029094;28;20434;-55
2022/08/12 12:15:12;;;;;;;2.60;0.63;;;30.40;45.10;;;;;;5029787;28;20430;-55
2022/08/12 12:17:39;;;;;;;2.10;0.60;;;30.40;46.00;;;;;;5011537;28;20499;-55
2022/08/12 12:20:08;;;;;;;3.83;0.55;;;30.40;46.50;;;;;;5011923;28;20454;-55
2022/08/12 12:22:35;;;;;;;4.63;0.80;;;30.50;46.10;;;;;;5011907;28;20049;-55
2022/08/12 12:25:00;;;;;;;2.42;0.50;;;30.50;45.90;;;;;;4995028;28;20057;-55
2022/08/12 12:27:26;;;;;;;3.10;0.63;;;30.50;46.30;;;;;;5011360;28;20045;-55
2022/08/12 12:29:54;;;;;;;8.73;0.70;;;30.50;45.50;;;;;;5029108;28;20068;-55
2022/08/12 12:32:19;;;;;;;6.18;1.23;;;30.50;45.10;;;;;;5028645;28;20411;-55
2022/08/12 12:34:45;;;;;;;3.47;1.00;;;30.40;45.70;;;;;;5028691;28;20041;-55
2022/08/12 12:37:12;;;;;;;3.85;0.85;;;30.40;46.20;;;;;;5028785;28;20041;-55
2022/08/12 12:39:39;;;;;;;5.50;1.10;;;30.40;46.50;;;;;;5029328;28;20081;-55
2022/08/12 12:42:05;;;;;;;3.60;1.00;;;30.40;47.80;;;;;;5010946;28;20454;-55
2022/08/12 12:44:32;;;;;;;4.80;0.80;;;30.40;47.90;;;;;;5029038;28;20394;-56
2022/08/12 12:46:57;;;;;;;3.38;0.88;;;30.40;47.20;;;;;;5028444;28;20041;-55
2022/08/12 12:49:23;;;;;;;4.07;0.88;;;30.40;47.10;;;;;;5027572;28;20048;-56
2022/08/12 12:51:49;;;;;;;5.38;1.08;;;30.40;46.60;;;;;;5027507;28;20042;-55
2022/08/12 12:54:14;;;;;;;4.25;0.73;;;30.40;46.40;;;;;;5027229;28;20029;-55
2022/08/12 12:56:41;;;;;;;3.33;1.23;;;30.40;47.30;;;;;;5028110;28;20415;-56
2022/08/12 12:59:07;;;;;;;3.15;1.02;;;30.40;46.50;;;;;;5027505;28;20120;-55
2022/08/12 13:01:37;;;;;;;3.40;0.98;;;30.40;47.40;;;;;;5009323;28;20050;-55
2022/08/12 13:04:04;;;;;;;4.00;1.00;;;30.40;47.20;;;;;;5027208;28;20415;-56
2022/08/12 13:06:30;;;;;;;3.08;0.98;;;30.40;47.10;;;;;;5027689;28;20041;-55
2022/08/12 13:08:57;;;;;;;3.45;1.10;;;30.40;46.60;;;;;;5026784;28;20480;-55
2022/08/12 13:11:23;;;;;;;5.82;1.02;;;30.40;47.40;;;;;;5024361;28;20034;-56
2022/08/12 13:13:52;;;;;;;4.72;1.00;;;30.40;46.70;;;;;;5027727;28;20167;-56
2022/08/12 13:16:21;;;;;;;2.70;1.00;;;30.30;47.10;;;;;;5027779;28;20037;-57
2022/08/12 13:18:49;;;;;;;5.53;1.20;;;30.30;48.10;;;;;;5028135;28;20514;-55
2022/08/12 13:21:16;;;;;;;3.10;0.80;;;30.30;48.00;;;;;;5028006;28;20033;-55
2022/08/12 13:23:45;;;;;;;3.53;0.90;;;30.30;47.00;;;;;;5026213;28;20619;-55
2022/08/12 13:26:16;;;;;;;3.22;0.90;;;30.30;47.80;;;;;;5009576;28;20483;-55
2022/08/12 13:28:48;;;;;;;4.20;0.70;;;30.30;47.60;;;;;;5027599;28;20049;-55
2022/08/12 13:31:16;;;;;;;2.10;0.82;;;30.30;47.90;;;;;;5010053;28;20346;-55
2022/08/12 13:33:42;;;;;;;3.13;1.00;;;30.30;48.50;;;;;;5026566;28;20071;-56
2022/08/12 13:36:09;;;;;;;3.97;0.88;;;30.30;48.60;;;;;;5027796;28;20494;-56
2022/08/12 13:38:47;;;;;;;5.32;0.90;;;30.30;49.00;;;;;;5027862;28;20121;-55
2022/08/12 13:41:32;;;;;;;4.95;0.82;;;30.30;48.40;;;;;;5025582;28;20030;-55
2022/08/12 13:43:59;;;;;;;2.03;0.75;;;30.20;47.40;;;;;;5027467;28;20048;-56
2022/08/12 13:46:25;;;;;;;2.33;0.75;;;30.20;48.00;;;;;;5027513;28;20167;-56
2022/08/12 13:48:53;;;;;;;4.93;0.98;;;30.10;48.40;;;;;;5026818;28;20128;-56
2022/08/12 13:51:19;;;;;;;3.70;0.80;;;30.10;48.30;;;;;;5026977;28;20037;-56
2022/08/12 13:53:44;;;;;;;2.90;0.93;;;30.10;48.70;;;;;;5009335;28;20527;-56
2022/08/12 13:56:10;;;;;;;2.83;1.08;;;30.10;49.10;;;;;;5026820;28;20041;-55
2022/08/12 13:58:48;;;;;;;3.75;1.15;;;30.10;48.90;;;;;;5009217;28;20072;-55
2022/08/12 14:01:19;;;;;;;7.53;1.05;;;30.10;49.10;;;;;;5009026;28;20049;-56
2022/08/12 14:03:46;;;;;;;2.88;0.80;;;30.10;48.50;;;;;;5006680;28;20435;-55
2022/08/12 14:06:12;;;;;;;4.03;0.80;;;30.00;48.20;;;;;;5026694;28;20444;-55
2022/08/12 14:08:38;;;;;;;5.03;1.10;;;30.00;47.40;;;;;;5026476;28;20160;-56
2022/08/12 14:11:04;;;;;;;4.70;1.10;;;30.00;47.10;;;;;;5027309;28;20037;-55
2022/08/12 14:13:33;;;;;;;3.42;1.00;;;29.90;48.10;;;;;;5009043;28;20045;-55
2022/08/12 14:16:01;;;;;;;3.33;0.88;;;29.90;48.40;;;;;;5026499;28;20392;-56
2022/08/12 14:18:33;;;;;;;3.45;0.75;;;29.90;49.20;;;;;;5009331;28;20055;-55
2022/08/12 14:21:10;;;;;;;4.45;0.95;;;29.90;49.00;;;;;;5027281;28;20052;-56
2022/08/12 14:23:40;;;;;;;2.70;0.80;;;29.90;48.10;;;;;;5008665;28;20475;-55
2022/08/12 14:26:08;;;;;;;3.63;1.33;;;29.90;47.90;;;;;;5023792;28;20037;-58
2022/08/12 14:28:35;;;;;;;3.08;0.95;;;29.90;48.20;;;;;;5026527;28;20452;-55
2022/08/12 14:31:07;;;;;;;2.75;0.70;;;29.90;48.20;;;;;;5027196;28;20073;-55
2022/08/12 14:33:36;;;;;;;;;;;29.80;48.40;;;;;;5004481;28;20068;-55